createdAt,value
2022-08-08T00:00:52.851Z,16.64
2022-08-08T00:01:08.004Z,16.61
2022-08-08T00:02:03.035Z,16.58
2022-08-08T00:02:50.750Z,16.53
2022-08-08T00:03:49.753Z,16.50
2022-08-08T00:04:53.114Z,16.48
2022-08-08T00:06:03.392Z,16.45
2022-08-08T00:06:50.722Z,16.42
2022-08-08T00:07:49.704Z,16.39
2022-08-08T00:08:49.885Z,16.34
2022-08-08T00:09:52.466Z,16.31
2022-08-08T00:10:49.819Z,16.28
2022-08-08T00:12:07.766Z,16.25
2022-08-08T00:12:56.620Z,16.24
2022-08-08T00:14:15.290Z,16.21
2022-08-08T00:14:59.177Z,16.17
2022-08-08T00:15:55.838Z,16.15
2022-08-08T00:16:50.596Z,16.09
2022-08-08T00:18:03.538Z,16.07
2022-08-08T00:18:50.597Z,16.05
2022-08-08T00:19:51.484Z,16.02
2022-08-08T00:20:50.456Z,16.01
2022-08-08T00:21:49.539Z,15.97
2022-08-08T00:22:49.536Z,15.94
2022-08-08T00:23:51.474Z,15.92
2022-08-08T00:24:49.516Z,15.90
2022-08-08T00:25:50.892Z,15.87
2022-08-08T00:26:49.507Z,15.84
2022-08-08T00:27:49.476Z,15.83
2022-08-08T00:28:49.488Z,15.80
2022-08-08T00:29:49.452Z,15.78
2022-08-08T00:31:00.672Z,15.76
2022-08-08T00:32:20.809Z,15.74
2022-08-08T00:32:50.426Z,15.72
2022-08-08T00:34:18.791Z,15.71
2022-08-08T00:34:50.399Z,15.69
2022-08-08T00:35:49.391Z,15.67
2022-08-08T00:36:51.633Z,15.65
2022-08-08T00:38:01.616Z,15.62
2022-08-08T00:38:51.894Z,15.62
2022-08-08T00:41:07.362Z,15.60
2022-08-08T00:41:09.361Z,15.60
2022-08-08T00:42:07.767Z,15.57
2022-08-08T00:42:50.343Z,15.56
2022-08-08T00:43:59.290Z,15.54
2022-08-08T00:44:50.996Z,15.53
2022-08-08T00:45:49.280Z,15.51
2022-08-08T00:46:56.817Z,15.50
2022-08-08T00:48:04.944Z,15.49
2022-08-08T00:48:50.243Z,15.49
2022-08-08T00:49:59.090Z,15.46
2022-08-08T00:50:52.330Z,15.44
2022-08-08T00:51:49.204Z,15.44
2022-08-08T00:52:51.404Z,15.43
2022-08-08T00:53:56.966Z,15.41
2022-08-08T00:54:50.182Z,15.38
2022-08-08T00:55:53.227Z,15.38
2022-08-08T00:56:50.175Z,15.36
2022-08-08T00:57:58.031Z,15.34
2022-08-08T00:58:54.557Z,15.32
2022-08-08T00:59:49.134Z,15.32
2022-08-08T01:00:50.687Z,15.31
2022-08-08T01:01:49.173Z,15.29
2022-08-08T01:03:57.632Z,15.28
2022-08-08T01:03:58.391Z,15.27
2022-08-08T01:04:50.063Z,15.27
2022-08-08T01:05:59.380Z,15.25
2022-08-08T01:06:50.038Z,15.23
2022-08-08T01:07:55.689Z,15.21
2022-08-08T01:08:51.961Z,15.20
2022-08-08T01:09:49.066Z,15.20
2022-08-08T01:10:50.874Z,15.17
2022-08-08T01:11:51.974Z,15.16
2022-08-08T01:12:48.970Z,15.14
2022-08-08T01:13:52.796Z,15.14
2022-08-08T01:14:54.588Z,15.11
2022-08-08T01:15:54.344Z,15.09
2022-08-08T01:16:48.929Z,15.10
2022-08-08T01:17:54.125Z,15.09
2022-08-08T01:18:52.427Z,15.07
2022-08-08T01:20:02.036Z,15.06
2022-08-08T01:20:49.903Z,15.06
2022-08-08T01:22:10.142Z,15.02
2022-08-08T01:22:50.511Z,15.02
2022-08-08T01:24:06.158Z,15.01
2022-08-08T01:24:53.733Z,14.99
2022-08-08T01:25:48.839Z,14.98
2022-08-08T01:26:49.821Z,14.95
2022-08-08T01:27:48.810Z,14.95
2022-08-08T01:28:48.815Z,14.94
2022-08-08T01:29:59.479Z,14.92
2022-08-08T01:30:53.647Z,14.92
2022-08-08T01:32:06.839Z,14.92
2022-08-08T01:32:51.883Z,14.89
2022-08-08T01:34:00.592Z,14.88
2022-08-08T01:34:49.772Z,14.89
2022-08-08T01:35:48.722Z,14.84
2022-08-08T01:36:48.761Z,14.84
2022-08-08T01:37:58.205Z,14.83
2022-08-08T01:38:49.693Z,14.81
2022-08-08T01:39:48.713Z,14.80
2022-08-08T01:40:48.663Z,14.78
2022-08-08T01:41:48.663Z,14.77
2022-08-08T01:42:48.641Z,14.75
2022-08-08T01:43:48.643Z,14.72
2022-08-08T01:44:50.527Z,14.72
2022-08-08T01:45:50.422Z,14.70
2022-08-08T01:46:52.602Z,14.68
2022-08-08T01:48:14.413Z,14.65
2022-08-08T01:48:51.231Z,14.64
2022-08-08T01:49:48.605Z,14.62
2022-08-08T01:50:50.507Z,14.62
2022-08-08T01:52:04.929Z,14.61
2022-08-08T01:53:57.117Z,14.60
2022-08-08T01:55:14.842Z,14.58
2022-08-08T01:55:46.330Z,14.55
2022-08-08T01:56:29.131Z,14.52
2022-08-08T01:56:49.493Z,14.54
2022-08-08T01:58:10.946Z,14.52
2022-08-08T01:58:49.658Z,14.51
2022-08-08T02:00:01.733Z,14.50
2022-08-08T02:00:49.511Z,14.47
2022-08-08T02:01:59.717Z,14.46
2022-08-08T02:02:49.419Z,14.46
2022-08-08T02:03:56.122Z,14.43
2022-08-08T02:04:52.191Z,14.45
2022-08-08T02:05:55.804Z,14.42
2022-08-08T02:06:49.387Z,14.42
2022-08-08T02:07:48.941Z,14.40
2022-08-08T02:08:48.366Z,14.40
2022-08-08T02:10:03.920Z,14.37
2022-08-08T02:10:49.358Z,14.37
2022-08-08T02:11:58.741Z,14.36
2022-08-08T02:12:49.335Z,14.35
2022-08-08T02:13:53.667Z,14.35
2022-08-08T02:14:49.778Z,14.33
2022-08-08T02:15:49.291Z,14.33
2022-08-08T02:16:48.280Z,14.29
2022-08-08T02:17:48.251Z,14.32
2022-08-08T02:18:48.242Z,14.32
2022-08-08T02:20:07.801Z,14.28
2022-08-08T02:21:00.751Z,14.28
2022-08-08T02:21:49.223Z,14.28
2022-08-08T02:22:54.627Z,14.28
2022-08-08T02:23:49.248Z,14.27
2022-08-08T02:24:49.180Z,14.27
2022-08-08T02:25:48.903Z,14.27
2022-08-08T02:26:48.171Z,14.25
2022-08-08T02:27:48.143Z,14.24
2022-08-08T02:28:51.774Z,14.24
2022-08-08T02:29:52.539Z,14.22
2022-08-08T02:30:50.065Z,14.21
2022-08-08T02:32:00.814Z,14.21
2022-08-08T02:32:49.103Z,14.20
2022-08-08T02:34:07.216Z,14.18
2022-08-08T02:35:08.856Z,14.17
2022-08-08T02:36:04.924Z,14.15
2022-08-08T02:36:49.067Z,14.15
2022-08-08T02:37:51.345Z,14.12
2022-08-08T02:38:50.575Z,14.10
2022-08-08T02:40:00.301Z,14.10
2022-08-08T02:40:50.109Z,14.10
2022-08-08T02:41:59.330Z,14.07
2022-08-08T02:44:35.573Z,14.07
2022-08-08T02:44:43.161Z,14.06
2022-08-08T02:44:57.747Z,14.04
2022-08-08T02:45:54.217Z,14.03
2022-08-08T02:46:50.623Z,14.03
2022-08-08T02:47:52.110Z,14.02
2022-08-08T02:48:48.916Z,14.00
2022-08-08T02:49:51.786Z,13.99
2022-08-08T02:50:55.616Z,13.97
2022-08-08T02:51:56.854Z,13.99
2022-08-08T02:52:50.877Z,13.97
2022-08-08T02:53:47.858Z,13.97
2022-08-08T02:54:50.131Z,13.96
2022-08-08T02:55:47.838Z,13.96
2022-08-08T02:56:48.928Z,13.95
2022-08-08T02:57:50.656Z,13.95
2022-08-08T02:58:47.824Z,13.92
2022-08-08T03:00:15.983Z,13.92
2022-08-08T03:00:50.958Z,13.92
2022-08-08T03:01:50.664Z,13.89
2022-08-08T03:02:50.390Z,13.89
2022-08-08T03:05:04.487Z,13.88
2022-08-08T03:05:04.488Z,13.89
2022-08-08T03:05:53.379Z,13.87
2022-08-08T03:06:47.721Z,13.87
2022-08-08T03:07:57.724Z,13.85
2022-08-08T03:08:52.070Z,13.84
2022-08-08T03:09:47.682Z,13.81
2022-08-08T03:10:53.585Z,13.79
2022-08-08T03:12:02.962Z,13.79
2022-08-08T03:13:01.025Z,13.78
2022-08-08T03:15:56.984Z,13.75
2022-08-08T03:15:57.495Z,13.71
2022-08-08T03:15:59.561Z,13.77
2022-08-08T03:16:48.867Z,13.71
2022-08-08T03:17:59.851Z,13.70
2022-08-08T03:18:48.594Z,13.69
2022-08-08T03:19:51.210Z,13.69
2022-08-08T03:20:51.336Z,13.67
2022-08-08T03:21:58.298Z,13.66
2022-08-08T03:22:56.474Z,13.66
2022-08-08T03:23:59.289Z,13.66
2022-08-08T03:24:48.527Z,13.64
2022-08-08T03:25:50.343Z,13.64
2022-08-08T03:26:47.517Z,13.63
2022-08-08T03:27:47.486Z,13.63
2022-08-08T03:28:51.084Z,13.62
2022-08-08T03:29:56.044Z,13.60
2022-08-08T03:30:49.035Z,13.60
2022-08-08T03:32:06.361Z,13.59
2022-08-08T03:32:58.697Z,13.57
2022-08-08T03:34:00.563Z,13.57
2022-08-08T03:34:48.408Z,13.54
2022-08-08T03:35:47.409Z,13.54
2022-08-08T03:36:47.398Z,13.52
2022-08-08T03:38:54.775Z,13.52
2022-08-08T03:38:54.903Z,13.49
2022-08-08T03:39:52.117Z,13.51
2022-08-08T03:40:51.690Z,13.49
2022-08-08T03:42:27.434Z,13.49
2022-08-08T03:42:48.346Z,13.48
2022-08-08T03:43:47.319Z,13.46
2022-08-08T03:44:52.091Z,13.46
2022-08-08T03:46:06.059Z,13.45
2022-08-08T03:46:48.279Z,13.44
2022-08-08T03:47:49.114Z,13.42
2022-08-08T03:49:38.197Z,13.42
2022-08-08T03:49:58.156Z,13.42
2022-08-08T03:50:48.568Z,13.42
2022-08-08T03:51:51.306Z,13.41
2022-08-08T03:52:47.231Z,13.42
2022-08-08T03:53:47.624Z,13.41
2022-08-08T03:55:01.635Z,13.41
2022-08-08T03:55:56.424Z,13.39
2022-08-08T03:56:48.167Z,13.39
2022-08-08T03:58:34.620Z,13.39
2022-08-08T03:58:48.151Z,13.38
2022-08-08T04:00:01.353Z,13.36
2022-08-08T04:01:01.608Z,13.33
2022-08-08T04:02:12.448Z,13.36
2022-08-08T04:02:51.705Z,13.36
2022-08-08T04:03:57.574Z,13.33
2022-08-08T04:04:48.141Z,13.33
2022-08-08T04:05:49.804Z,13.33
2022-08-08T04:06:47.073Z,13.32
2022-08-08T04:07:47.083Z,13.32
2022-08-08T04:08:47.053Z,13.32
2022-08-08T04:10:00.431Z,13.32
2022-08-08T04:10:48.038Z,13.30
2022-08-08T04:11:58.224Z,13.29
2022-08-08T04:12:48.006Z,13.30
2022-08-08T04:14:03.242Z,13.29
2022-08-08T04:14:50.768Z,13.29
2022-08-08T04:15:54.690Z,13.29
2022-08-08T04:16:49.250Z,13.28
2022-08-08T04:17:58.860Z,13.26
2022-08-08T04:18:48.720Z,13.28
2022-08-08T04:19:46.917Z,13.26
2022-08-08T04:20:46.906Z,13.28
2022-08-08T04:21:46.887Z,13.26
2022-08-08T04:22:46.897Z,13.25
2022-08-08T04:24:05.368Z,13.25
2022-08-08T04:24:50.092Z,13.23
2022-08-08T04:25:46.847Z,13.25
2022-08-08T04:26:57.363Z,13.23
2022-08-08T04:28:35.831Z,13.23
2022-08-08T04:28:47.818Z,13.22
2022-08-08T04:30:00.843Z,13.22
2022-08-08T04:30:47.788Z,13.22
2022-08-08T04:31:58.426Z,13.20
2022-08-08T04:32:50.084Z,13.20
2022-08-08T04:33:46.761Z,13.19
2022-08-08T04:34:49.437Z,13.20
2022-08-08T04:35:51.080Z,13.19
2022-08-08T04:36:46.732Z,13.19
2022-08-08T04:37:46.720Z,13.17
2022-08-08T04:38:47.496Z,13.19
2022-08-08T04:40:03.601Z,13.19
2022-08-08T04:40:53.622Z,13.17
2022-08-08T04:41:47.680Z,13.17
2022-08-08T04:42:56.948Z,13.17
2022-08-08T04:43:51.161Z,13.19
2022-08-08T04:44:48.003Z,13.19
2022-08-08T04:45:46.637Z,13.19
2022-08-08T04:46:46.624Z,13.20
2022-08-08T04:47:47.089Z,13.20
2022-08-08T04:48:46.591Z,13.20
2022-08-08T04:50:00.662Z,13.23
2022-08-08T04:50:47.572Z,13.22
2022-08-08T04:51:56.843Z,13.23
2022-08-08T04:52:48.603Z,13.25
2022-08-08T04:54:36.448Z,13.26
2022-08-08T04:54:50.642Z,13.26
2022-08-08T04:55:55.211Z,13.29
2022-08-08T04:56:47.505Z,13.30
2022-08-08T04:57:46.514Z,13.33
2022-08-08T04:58:48.334Z,13.32
2022-08-08T04:59:46.475Z,13.36
2022-08-08T05:00:48.361Z,13.39
2022-08-08T05:01:47.972Z,13.39
2022-08-08T05:02:46.703Z,13.42
2022-08-08T05:04:09.118Z,13.42
2022-08-08T05:04:47.425Z,13.45
2022-08-08T05:05:46.414Z,13.46
2022-08-08T05:06:47.408Z,13.48
2022-08-08T05:07:46.407Z,13.49
2022-08-08T05:08:46.397Z,13.52
2022-08-08T05:09:47.359Z,13.55
2022-08-08T05:10:46.367Z,13.57
2022-08-08T05:11:47.724Z,13.60
2022-08-08T05:13:01.634Z,13.63
2022-08-08T05:13:58.099Z,13.66
2022-08-08T05:14:47.309Z,13.70
2022-08-08T05:16:51.309Z,13.73
2022-08-08T05:16:55.602Z,13.75
2022-08-08T05:17:54.373Z,13.79
2022-08-08T05:18:47.270Z,13.82
2022-08-08T05:20:09.994Z,13.87
2022-08-08T05:20:50.277Z,13.87
2022-08-08T05:21:59.552Z,13.92
2022-08-08T05:22:47.230Z,13.96
2022-08-08T05:23:46.270Z,14.00
2022-08-08T05:24:48.208Z,14.04
2022-08-08T05:25:46.770Z,14.07
2022-08-08T05:26:46.180Z,14.12
2022-08-08T05:27:46.161Z,14.18
2022-08-08T05:28:55.977Z,14.22
2022-08-08T05:29:51.831Z,14.28
2022-08-08T05:30:47.609Z,14.32
2022-08-08T05:32:05.384Z,14.36
2022-08-08T05:32:47.126Z,14.39
2022-08-08T05:33:49.454Z,14.43
2022-08-08T05:34:46.094Z,14.47
2022-08-08T05:35:46.093Z,14.54
2022-08-08T05:36:47.063Z,14.57
2022-08-08T05:37:52.719Z,14.61
2022-08-08T05:38:47.123Z,14.64
2022-08-08T05:39:46.126Z,14.69
2022-08-08T05:40:46.034Z,14.72
2022-08-08T05:41:55.601Z,14.77
2022-08-08T05:42:49.059Z,14.81
2022-08-08T05:44:03.650Z,14.84
2022-08-08T05:44:46.990Z,14.91
2022-08-08T05:45:54.770Z,14.96
2022-08-08T05:46:47.524Z,14.99
2022-08-08T05:48:00.135Z,15.03
2022-08-08T05:48:49.860Z,15.09
2022-08-08T05:49:54.202Z,15.13
2022-08-08T05:50:46.915Z,15.20
2022-08-08T05:51:49.100Z,15.21
2022-08-08T05:52:45.916Z,15.31
2022-08-08T05:54:24.350Z,15.38
2022-08-08T05:54:50.927Z,15.44
2022-08-08T05:56:09.637Z,15.53
2022-08-08T05:56:48.370Z,15.62
2022-08-08T05:57:45.857Z,15.71
2022-08-08T05:58:58.006Z,15.80
2022-08-08T05:59:59.141Z,15.87
2022-08-08T06:00:56.795Z,15.97
2022-08-08T06:01:55.397Z,16.08
2022-08-08T06:02:47.876Z,16.20
2022-08-08T06:03:45.884Z,16.34
2022-08-08T06:04:54.424Z,16.48
2022-08-08T06:05:46.751Z,16.64
2022-08-08T06:06:48.089Z,16.82
2022-08-08T06:07:46.112Z,17.00
2022-08-08T06:08:53.105Z,17.21
2022-08-08T06:10:01.012Z,17.40
2022-08-08T06:10:46.702Z,17.63
2022-08-08T06:11:46.088Z,17.87
2022-08-08T06:12:45.723Z,18.12
2022-08-08T06:13:47.446Z,18.37
2022-08-08T06:14:47.722Z,18.65
2022-08-08T06:15:53.675Z,18.92
2022-08-08T06:16:46.656Z,19.22
2022-08-08T06:17:51.522Z,19.50
2022-08-08T06:18:46.607Z,19.81
2022-08-08T06:19:45.596Z,20.10
2022-08-08T06:20:45.947Z,20.33
2022-08-08T06:21:51.150Z,20.57
2022-08-08T06:22:46.576Z,20.79
2022-08-08T06:23:53.111Z,21.03
2022-08-08T06:24:50.909Z,21.25
2022-08-08T06:26:43.471Z,21.43
2022-08-08T06:26:50.665Z,21.67
2022-08-08T06:27:48.356Z,21.92
2022-08-08T06:28:45.497Z,22.14
2022-08-08T06:29:59.719Z,22.35
2022-08-08T06:30:46.469Z,22.54
2022-08-08T06:31:52.917Z,22.73
2022-08-08T06:32:47.788Z,22.94
2022-08-08T06:34:26.727Z,23.09
2022-08-08T06:34:56.585Z,23.23
2022-08-08T06:36:08.947Z,23.39
2022-08-08T06:36:53.421Z,23.54
2022-08-08T06:37:46.402Z,23.63
2022-08-08T06:38:45.385Z,23.70
2022-08-08T06:39:56.027Z,23.79
2022-08-08T06:40:48.544Z,23.87
2022-08-08T06:41:46.375Z,23.94
2022-08-08T06:42:45.392Z,24.00
2022-08-08T06:43:56.933Z,24.09
2022-08-08T06:44:46.323Z,24.13
2022-08-08T06:45:45.304Z,24.15
2022-08-08T06:46:45.296Z,24.20
2022-08-08T06:47:58.208Z,24.24
2022-08-08T06:48:46.282Z,24.27
2022-08-08T06:49:55.174Z,24.30
2022-08-08T06:50:46.258Z,24.37
2022-08-08T06:51:47.066Z,24.43
2022-08-08T06:52:47.882Z,24.49
2022-08-08T06:53:51.266Z,24.55
2022-08-08T06:54:48.995Z,24.61
2022-08-08T06:55:47.366Z,24.53
2022-08-08T06:56:51.234Z,24.12
2022-08-08T06:57:56.103Z,23.61
2022-08-08T06:58:46.163Z,23.19
2022-08-08T07:00:11.404Z,22.91
2022-08-08T07:00:46.156Z,22.64
2022-08-08T07:02:27.156Z,22.42
2022-08-08T07:02:46.426Z,22.28
2022-08-08T07:03:51.879Z,22.30
2022-08-08T07:04:51.968Z,22.36
2022-08-08T07:05:46.137Z,22.24
2022-08-08T07:06:46.106Z,22.14
2022-08-08T07:07:45.085Z,22.09
2022-08-08T07:08:45.056Z,22.09
2022-08-08T07:09:56.305Z,22.18
2022-08-08T07:10:47.902Z,22.37
2022-08-08T07:11:50.864Z,22.60
2022-08-08T07:12:47.983Z,22.80
2022-08-08T07:14:00.958Z,22.94
2022-08-08T07:14:45.989Z,22.88
2022-08-08T07:16:04.394Z,22.70
2022-08-08T07:16:51.064Z,22.61
2022-08-08T07:18:01.766Z,22.64
2022-08-08T07:18:46.037Z,22.61
2022-08-08T07:19:44.940Z,22.67
2022-08-08T07:20:50.620Z,22.79
2022-08-08T07:21:45.921Z,22.77
2022-08-08T07:22:44.920Z,22.70
2022-08-08T07:24:01.899Z,22.65
2022-08-08T07:24:46.579Z,22.51
2022-08-08T07:25:54.721Z,22.43
2022-08-08T07:26:46.858Z,22.47
2022-08-08T07:28:00.676Z,22.67
2022-08-08T07:28:45.856Z,22.79
2022-08-08T07:30:00.870Z,22.91
2022-08-08T07:30:45.837Z,23.02
2022-08-08T07:31:44.816Z,23.23
2022-08-08T07:32:44.817Z,23.39
2022-08-08T07:33:53.260Z,23.54
2022-08-08T07:34:59.313Z,23.65
2022-08-08T07:35:45.798Z,23.70
2022-08-08T07:36:48.088Z,23.61
2022-08-08T07:38:04.141Z,23.51
2022-08-08T07:38:47.399Z,23.48
2022-08-08T07:39:57.722Z,23.51
2022-08-08T07:40:45.784Z,23.47
2022-08-08T07:42:04.298Z,23.28
2022-08-08T07:42:45.702Z,23.09
2022-08-08T07:43:53.464Z,22.92
2022-08-08T07:44:45.683Z,22.82
2022-08-08T07:46:05.170Z,22.97
2022-08-08T07:46:45.653Z,23.31
2022-08-08T07:47:49.153Z,23.63
2022-08-08T07:48:45.634Z,23.83
2022-08-08T07:49:46.236Z,23.95
2022-08-08T07:50:44.624Z,24.10
2022-08-08T07:51:53.493Z,24.12
2022-08-08T07:52:45.598Z,24.09
2022-08-08T07:54:00.959Z,23.93
2022-08-08T07:54:45.578Z,23.73
2022-08-08T07:55:44.567Z,23.75
2022-08-08T07:56:44.550Z,23.75
2022-08-08T07:57:48.438Z,23.84
2022-08-08T07:58:44.549Z,23.97
2022-08-08T07:59:45.511Z,24.09
2022-08-08T08:00:44.574Z,24.25
2022-08-08T08:02:33.084Z,24.27
2022-08-08T08:02:45.577Z,24.00
2022-08-08T08:03:44.494Z,23.87
2022-08-08T08:04:44.475Z,24.02
2022-08-08T08:05:45.251Z,24.10
2022-08-08T08:06:45.462Z,24.34
2022-08-08T08:07:45.934Z,24.61
2022-08-08T08:08:52.157Z,24.83
2022-08-08T08:09:45.417Z,25.13
2022-08-08T08:10:44.415Z,25.40
2022-08-08T08:11:51.478Z,25.58
2022-08-08T08:12:45.387Z,25.75
2022-08-08T08:14:07.537Z,25.61
2022-08-08T08:14:45.392Z,25.62
2022-08-08T08:15:44.358Z,25.79
2022-08-08T08:16:48.499Z,25.98
2022-08-08T08:17:48.270Z,26.07
2022-08-08T08:18:52.151Z,26.13
2022-08-08T08:19:46.203Z,25.99
2022-08-08T08:20:45.327Z,25.52
2022-08-08T08:21:57.866Z,25.10
2022-08-08T08:22:45.292Z,24.80
2022-08-08T08:23:44.314Z,24.85
2022-08-08T08:24:46.430Z,24.91
2022-08-08T08:25:55.125Z,24.88
2022-08-08T08:26:46.998Z,24.87
2022-08-08T08:27:46.720Z,25.03
2022-08-08T08:28:44.244Z,25.18
2022-08-08T08:29:44.218Z,25.32
2022-08-08T08:30:45.760Z,25.47
2022-08-08T08:31:44.196Z,25.61
2022-08-08T08:32:51.312Z,25.40
2022-08-08T08:33:45.220Z,25.13
2022-08-08T08:34:49.233Z,24.80
2022-08-08T08:36:21.077Z,24.42
2022-08-08T08:36:45.161Z,24.34
2022-08-08T08:38:13.096Z,24.34
2022-08-08T08:38:49.416Z,24.31
2022-08-08T08:40:01.087Z,24.73
2022-08-08T08:40:48.569Z,25.21
2022-08-08T08:41:45.091Z,25.79
2022-08-08T08:42:44.082Z,25.87
2022-08-08T08:43:45.112Z,25.64
2022-08-08T08:44:44.083Z,25.30
2022-08-08T08:45:44.055Z,24.95
2022-08-08T08:46:45.593Z,24.65
2022-08-08T08:47:45.057Z,24.32
2022-08-08T08:48:49.498Z,23.94
2022-08-08T08:49:45.046Z,23.78
2022-08-08T08:50:44.018Z,23.75
2022-08-08T08:51:50.887Z,23.87
2022-08-08T08:52:58.474Z,24.08
2022-08-08T08:53:58.964Z,24.25
2022-08-08T08:54:44.999Z,24.25
2022-08-08T08:55:43.959Z,24.37
2022-08-08T08:56:43.949Z,24.37
2022-08-08T08:57:43.929Z,24.24
2022-08-08T08:58:49.888Z,24.13
2022-08-08T09:00:01.443Z,24.12
2022-08-08T09:01:05.032Z,24.05
2022-08-08T09:01:45.486Z,23.97
2022-08-08T09:02:43.893Z,23.84
2022-08-08T09:03:46.900Z,23.88
2022-08-08T09:04:49.703Z,23.97
2022-08-08T09:05:54.188Z,24.00
2022-08-08T09:06:50.385Z,23.95
2022-08-08T09:07:52.251Z,23.95
2022-08-08T09:08:44.834Z,24.00
2022-08-08T09:09:47.686Z,24.12
2022-08-08T09:10:43.828Z,24.21
2022-08-08T09:11:47.645Z,24.24
2022-08-08T09:12:45.405Z,24.31
2022-08-08T09:13:43.778Z,24.32
2022-08-08T09:14:45.219Z,24.35
2022-08-08T09:15:43.770Z,24.45
2022-08-08T09:16:43.749Z,24.45
2022-08-08T09:17:52.224Z,24.42
2022-08-08T09:18:44.737Z,24.49
2022-08-08T09:21:56.925Z,24.96
2022-08-08T09:22:00.704Z,24.76
2022-08-08T09:22:02.277Z,24.60
2022-08-08T09:22:44.694Z,25.10
2022-08-08T09:23:43.763Z,25.13
2022-08-08T09:24:43.679Z,25.15
2022-08-08T09:25:54.770Z,25.27
2022-08-08T09:26:49.655Z,25.32
2022-08-08T09:27:56.794Z,25.25
2022-08-08T09:28:44.655Z,25.20
2022-08-08T09:29:52.290Z,25.06
2022-08-08T09:30:44.627Z,25.02
2022-08-08T09:31:56.653Z,25.00
2022-08-08T09:33:12.182Z,25.02
2022-08-08T09:34:14.975Z,25.15
2022-08-08T09:34:45.595Z,25.35
2022-08-08T09:35:49.219Z,25.43
2022-08-08T09:36:51.810Z,25.39
2022-08-08T09:38:01.145Z,25.35
2022-08-08T09:38:52.916Z,25.35
2022-08-08T09:39:44.538Z,25.40
2022-08-08T09:40:46.540Z,25.51
2022-08-08T09:42:13.833Z,25.61
2022-08-08T09:42:51.221Z,25.75
2022-08-08T09:44:06.283Z,25.62
2022-08-08T09:44:44.483Z,25.52
2022-08-08T09:46:02.051Z,25.52
2022-08-08T09:46:45.484Z,25.80
2022-08-08T09:48:10.357Z,26.13
2022-08-08T09:48:49.975Z,26.48
2022-08-08T09:49:49.816Z,26.51
2022-08-08T09:50:50.202Z,26.25
2022-08-08T09:52:01.933Z,25.99
2022-08-08T09:53:15.379Z,25.80
2022-08-08T09:53:59.166Z,25.77
2022-08-08T09:54:44.636Z,25.77
2022-08-08T09:56:04.260Z,25.85
2022-08-08T09:56:45.308Z,25.92
2022-08-08T09:57:46.288Z,25.88
2022-08-08T09:58:44.589Z,25.95
2022-08-08T10:00:01.220Z,26.15
2022-08-08T10:00:53.376Z,26.07
2022-08-08T10:01:59.470Z,26.05
2022-08-08T10:02:44.883Z,26.12
2022-08-08T10:03:43.310Z,26.15
2022-08-08T10:04:47.850Z,26.07
2022-08-08T10:05:46.801Z,25.98
2022-08-08T10:06:45.125Z,25.97
2022-08-08T10:07:45.098Z,25.82
2022-08-08T10:08:43.264Z,25.65
2022-08-08T10:10:00.015Z,25.62
2022-08-08T10:10:50.979Z,25.70
2022-08-08T10:12:27.034Z,25.88
2022-08-08T10:12:54.147Z,26.01
2022-08-08T10:13:44.217Z,26.35
2022-08-08T10:14:44.208Z,26.43
2022-08-08T10:16:00.381Z,26.33
2022-08-08T10:16:44.199Z,26.12
2022-08-08T10:18:07.409Z,26.06
2022-08-08T10:18:44.163Z,26.12
2022-08-08T10:19:57.815Z,26.30
2022-08-08T10:20:51.457Z,26.45
2022-08-08T10:21:44.177Z,26.54
2022-08-08T10:22:54.986Z,26.77
2022-08-08T10:23:47.132Z,26.65
2022-08-08T10:24:44.103Z,26.52
2022-08-08T10:25:56.924Z,26.37
2022-08-08T10:26:57.596Z,26.33
2022-08-08T10:27:44.094Z,26.30
2022-08-08T10:28:43.154Z,26.30
2022-08-08T10:29:58.701Z,26.57
2022-08-08T10:30:59.821Z,26.70
2022-08-08T10:31:47.415Z,26.91
2022-08-08T10:32:50.736Z,26.95
2022-08-08T10:34:18.455Z,27.19
2022-08-08T10:34:44.028Z,26.85
2022-08-08T10:36:08.801Z,26.62
2022-08-08T10:36:43.989Z,26.50
2022-08-08T10:37:43.017Z,26.48
2022-08-08T10:38:42.980Z,26.48
2022-08-08T10:39:53.616Z,26.57
2022-08-08T10:40:44.019Z,26.60
2022-08-08T10:42:12.981Z,26.60
2022-08-08T10:42:44.912Z,26.69
2022-08-08T10:43:43.251Z,26.75
2022-08-08T10:44:42.922Z,26.76
2022-08-08T10:45:42.919Z,26.76
2022-08-08T10:46:43.912Z,26.77
2022-08-08T10:47:43.025Z,26.69
2022-08-08T10:48:57.308Z,26.88
2022-08-08T10:50:01.185Z,27.27
2022-08-08T10:50:43.875Z,27.09
2022-08-08T10:51:51.102Z,26.62
2022-08-08T10:52:44.522Z,26.33
2022-08-08T10:53:57.463Z,26.29
2022-08-08T10:54:43.826Z,26.33
2022-08-08T10:55:46.959Z,26.35
2022-08-08T10:56:43.166Z,26.55
2022-08-08T10:57:50.208Z,27.04
2022-08-08T10:58:54.631Z,27.49
2022-08-08T10:59:43.798Z,27.39
2022-08-08T11:00:48.836Z,27.27
2022-08-08T11:01:43.866Z,27.24
2022-08-08T11:02:42.770Z,27.24
2022-08-08T11:04:00.953Z,27.21
2022-08-08T11:04:43.740Z,27.14
2022-08-08T11:05:43.739Z,27.07
2022-08-08T11:06:47.389Z,27.03
2022-08-08T11:08:31.825Z,27.04
2022-08-08T11:08:53.505Z,27.00
2022-08-08T11:09:43.706Z,27.06
2022-08-08T11:10:42.695Z,27.34
2022-08-08T11:12:06.064Z,27.21
2022-08-08T11:12:43.674Z,27.29
2022-08-08T11:13:59.716Z,27.65
2022-08-08T11:14:43.655Z,28.15
2022-08-08T11:15:54.775Z,28.29
2022-08-08T11:16:46.610Z,28.29
2022-08-08T11:17:59.877Z,28.43
2022-08-08T11:18:43.617Z,28.17
2022-08-08T11:19:43.614Z,27.81
2022-08-08T11:20:42.599Z,27.40
2022-08-08T11:21:43.591Z,27.51
2022-08-08T11:22:43.578Z,27.87
2022-08-08T11:23:42.590Z,28.29
2022-08-08T11:24:42.558Z,28.83
2022-08-08T11:25:51.678Z,29.30
2022-08-08T11:26:56.372Z,29.23
2022-08-08T11:27:44.579Z,28.80
2022-08-08T11:28:42.550Z,28.37
2022-08-08T11:30:18.825Z,28.02
2022-08-08T11:30:50.092Z,27.77
2022-08-08T11:31:43.509Z,27.62
2022-08-08T11:32:42.502Z,27.49
2022-08-08T11:33:53.278Z,27.59
2022-08-08T11:34:58.934Z,27.66
2022-08-08T11:35:43.679Z,27.63
2022-08-08T11:36:42.446Z,27.59
2022-08-08T11:38:39.785Z,27.47
2022-08-08T11:38:54.016Z,27.36
2022-08-08T11:39:43.461Z,27.39
2022-08-08T11:40:44.244Z,27.25
2022-08-08T11:41:42.436Z,27.13
2022-08-08T11:42:42.411Z,27.18
2022-08-08T11:43:42.641Z,27.24
2022-08-08T11:44:42.377Z,27.27
2022-08-08T11:46:00.142Z,27.19
2022-08-08T11:46:43.358Z,27.17
2022-08-08T11:48:02.665Z,27.04
2022-08-08T11:48:44.970Z,27.00
2022-08-08T11:49:42.340Z,27.09
2022-08-08T11:50:42.322Z,27.44
2022-08-08T11:51:50.345Z,27.77
2022-08-08T11:52:45.258Z,27.82
2022-08-08T11:53:42.958Z,27.94
2022-08-08T11:54:44.829Z,28.12
2022-08-08T11:55:42.300Z,28.61
2022-08-08T11:56:43.274Z,28.59
2022-08-08T11:57:42.263Z,28.49
2022-08-08T11:58:42.275Z,28.54
2022-08-08T12:00:00.257Z,28.49
2022-08-08T12:00:43.236Z,28.29
2022-08-08T12:01:42.253Z,28.30
2022-08-08T12:02:42.341Z,28.41
2022-08-08T12:03:42.273Z,28.36
2022-08-08T12:04:42.284Z,28.30
2022-08-08T12:05:42.186Z,28.11
2022-08-08T12:06:44.723Z,27.82
2022-08-08T12:07:42.177Z,27.75
2022-08-08T12:08:42.180Z,27.74
2022-08-08T12:09:59.544Z,27.69
2022-08-08T12:10:47.727Z,27.66
2022-08-08T12:11:42.128Z,27.59
2022-08-08T12:12:42.130Z,27.74
2022-08-08T12:14:03.083Z,27.96
2022-08-08T12:14:43.119Z,28.21
2022-08-08T12:15:47.136Z,28.29
2022-08-08T12:16:47.106Z,28.25
2022-08-08T12:17:50.774Z,28.17
2022-08-08T12:18:43.072Z,28.12
2022-08-08T12:19:51.908Z,27.99
2022-08-08T12:20:43.055Z,27.90
2022-08-08T12:21:59.151Z,27.94
2022-08-08T12:22:45.681Z,28.18
2022-08-08T12:23:51.755Z,28.34
2022-08-08T12:24:43.024Z,28.39
2022-08-08T12:25:44.904Z,28.41
2022-08-08T12:26:42.995Z,28.31
2022-08-08T12:27:45.334Z,28.36
2022-08-08T12:28:45.352Z,28.51
2022-08-08T12:29:45.537Z,28.80
2022-08-08T12:30:41.957Z,28.95
2022-08-08T12:31:53.605Z,29.02
2022-08-08T12:32:42.940Z,28.67
2022-08-08T12:34:02.737Z,28.39
2022-08-08T12:34:42.939Z,28.31
2022-08-08T12:35:52.834Z,28.39
2022-08-08T12:36:46.427Z,28.43
2022-08-08T12:37:47.844Z,28.62
2022-08-08T12:38:42.891Z,28.73
2022-08-08T12:40:00.287Z,28.68
2022-08-08T12:40:54.836Z,28.52
2022-08-08T12:42:01.424Z,28.31
2022-08-08T12:42:47.494Z,28.17
2022-08-08T12:43:47.633Z,28.09
2022-08-08T12:44:42.842Z,28.15
2022-08-08T12:45:57.921Z,28.18
2022-08-08T12:46:42.821Z,28.24
2022-08-08T12:48:04.311Z,28.24
2022-08-08T12:48:50.566Z,28.15
2022-08-08T12:49:45.235Z,28.15
2022-08-08T12:50:41.858Z,28.11
2022-08-08T12:51:49.996Z,28.09